To NAV CANADA Home Page Login to a new session Search on AWWS site Feedback and Comments Disclaimer Vers la page française équivalente Tips FAQ What's new on the site To the Forecasts and Observations / NOTAM section To "File a Flight Plan" website Publications and other links Update of the User's profile FIC Telephone Numbers My Weather Data Folder Route Weather Data Regional Weather Data Local Weather Data To the Forecasts and Observations / NOTAM section
Request Generated 07/23/2016 at 11:06:04 UTC . Weather information available at that time is displayed.

METAR/TAF

ARVIAT/NU    (show WxCam)

METAR CYEK 231100Z AUTO 18008KT 9SM BKN160 09/09 A2980 RMK SLP094=
METAR CYEK 231000Z AUTO 19007KT 9SM SCT170 08/08 A2981 RMK SLP098=
METAR CYEK 230900Z AUTO 20007KT 9SM CLR 08/08 A2982 RMK SLP100=

TAF CYEK 230538Z 2306/2318 20012KT P6SM SCT060 TEMPO 2306/2315 BKN060
FM231500 18015G25KT P6SM SCT030 BKN060 TEMPO 2315/2318 P6SM -SHRA
BKN030 OVC060
RMK FCST BASED ON AUTO OBS. NXT FCST BY 231200Z=
Your time UTC time
Weather data provided by Environment Canada and NAV CANADA